SABRE10 PAEI-KDYS
Flight info
| Callsign | SABRE10 |
|---|---|
| Flight time | N/A |
| Altitude | 41000 |
| Route | FAI CAWIN J115 TED MDO B453 BOXER BEBOP BEFIN C1316 LAX J134 TRM BLH J65 ABI |
| Aircraft | B1/H-VGDW/C |
Departure
| Time | 2026-04-18 11:51 |
|---|---|
| Airport | Eielson Air Force Base (PAEI) |
Arrival
| Time | N/A |
|---|---|
| Airport | Dyess Air Force Base (KDYS) |
| Time | Latitude | Longitude | Altitude | Speed | Heading |
|---|---|---|---|---|---|
| 2026-04-18 11:44 | 64.64631 | -147.06952 | 565 ft | 0 kts | 220° |
| 2026-04-18 11:47 | 64.64608 | -147.07011 | 565 ft | 12 kts | 236° |
| 2026-04-18 11:48 | 64.64633 | -147.07188 | 570 ft | 18 kts | 307° |
| 2026-04-18 11:48 | 64.64720 | -147.07442 | 570 ft | 23 kts | 309° |
| 2026-04-18 11:48 | 64.64752 | -147.07674 | 560 ft | 15 kts | 272° |
| 2026-04-18 11:48 | 64.64814 | -147.07874 | 565 ft | 16 kts | 312° |
| 2026-04-18 11:49 | 64.64814 | -147.08109 | 562 ft | 16 kts | 249° |
| 2026-04-18 11:49 | 64.64791 | -147.08249 | 563 ft | 0 kts | 248° |
| 2026-04-18 11:49 | 64.64780 | -147.08312 | 564 ft | 9 kts | 248° |
| 2026-04-18 11:49 | 64.64757 | -147.08445 | 562 ft | 9 kts | 250° |
| 2026-04-18 11:50 | 64.64775 | -147.08560 | 571 ft | 3 kts | 332° |
| 2026-04-18 11:50 | 64.64779 | -147.08563 | 561 ft | 0 kts | 339° |
| 2026-04-18 11:50 | 64.64812 | -147.08593 | 567 ft | 28 kts | 339° |
| 2026-04-18 11:51 | 64.65224 | -147.08959 | 566 ft | 97 kts | 339° |
| 2026-04-18 11:51 | 64.66055 | -147.09696 | 564 ft | 156 kts | 339° |
| 2026-04-18 11:51 | 64.67216 | -147.10737 | 667 ft | 196 kts | 339° |
| 2026-04-18 11:51 | 64.68478 | -147.12095 | 1410 ft | 212 kts | 311° |
| 2026-04-18 11:52 | 64.68902 | -147.15477 | 2307 ft | 226 kts | 279° |
| 2026-04-18 11:52 | 64.69184 | -147.19279 | 3426 ft | 239 kts | 281° |
| 2026-04-18 11:52 | 64.69506 | -147.23143 | 4926 ft | 251 kts | 281° |
| 2026-04-18 11:52 | 64.69814 | -147.27154 | 6507 ft | 251 kts | 279° |
| 2026-04-18 11:53 | 64.70128 | -147.31249 | 7974 ft | 257 kts | 279° |
| 2026-04-18 11:53 | 64.70441 | -147.35385 | 9588 ft | 269 kts | 279° |
| 2026-04-18 11:53 | 64.70970 | -147.39736 | 10486 ft | 296 kts | 288° |
| 2026-04-18 11:53 | 64.71749 | -147.44739 | 10611 ft | 350 kts | 288° |
| 2026-04-18 11:54 | 64.72573 | -147.50237 | 11390 ft | 374 kts | 288° |
| 2026-04-18 11:54 | 64.73454 | -147.56157 | 12204 ft | 397 kts | 287° |
| 2026-04-18 11:54 | 64.74375 | -147.62392 | 13027 ft | 418 kts | 287° |
| 2026-04-18 11:54 | 64.75315 | -147.68806 | 13846 ft | 437 kts | 287° |
| 2026-04-18 11:55 | 64.76313 | -147.75667 | 14629 ft | 454 kts | 286° |
| 2026-04-18 11:55 | 64.77345 | -147.82805 | 15412 ft | 468 kts | 286° |
| 2026-04-18 11:55 | 64.78056 | -147.87727 | 15968 ft | 477 kts | 286° |
| 2026-04-18 11:55 | 64.78670 | -147.91978 | 16434 ft | 487 kts | 286° |
| 2026-04-18 11:56 | 64.79431 | -147.99826 | 17253 ft | 500 kts | 271° |
| 2026-04-18 11:56 | 64.79042 | -148.08048 | 18134 ft | 521 kts | 251° |
| 2026-04-18 11:56 | 64.77404 | -148.15560 | 19063 ft | 534 kts | 230° |
| 2026-04-18 11:56 | 64.74670 | -148.21265 | 20067 ft | 521 kts | 210° |
| 2026-04-18 11:57 | 64.71275 | -148.24466 | 21109 ft | 537 kts | 192° |
| 2026-04-18 11:57 | 64.67503 | -148.25470 | 22006 ft | 551 kts | 185° |
| 2026-04-18 11:57 | 64.63712 | -148.26445 | 22852 ft | 557 kts | 190° |
| 2026-04-18 11:57 | 64.59853 | -148.27933 | 23689 ft | 562 kts | 191° |
| 2026-04-18 11:58 | 64.55966 | -148.29383 | 24415 ft | 570 kts | 190° |
| 2026-04-18 11:58 | 64.52076 | -148.30708 | 25146 ft | 550 kts | 190° |
| 2026-04-18 11:58 | 64.48353 | -148.31936 | 25919 ft | 542 kts | 190° |
| 2026-04-18 11:58 | 64.44565 | -148.33181 | 26706 ft | 558 kts | 190° |
| 2026-04-18 11:59 | 64.40666 | -148.34447 | 27520 ft | 573 kts | 190° |
| 2026-04-18 11:59 | 64.36697 | -148.35715 | 28343 ft | 577 kts | 190° |
| 2026-04-18 11:59 | 64.32683 | -148.36979 | 29209 ft | 587 kts | 190° |
| 2026-04-18 11:59 | 64.28751 | -148.38335 | 30054 ft | 553 kts | 192° |
| 2026-04-18 12:00 | 64.24971 | -148.39793 | 30779 ft | 555 kts | 192° |
| 2026-04-18 12:00 | 64.21122 | -148.41360 | 31513 ft | 568 kts | 193° |
| 2026-04-18 12:00 | 64.17280 | -148.43361 | 32268 ft | 580 kts | 199° |
| 2026-04-18 12:00 | 64.13286 | -148.45844 | 33063 ft | 594 kts | 197° |
| 2026-04-18 12:01 | 64.05199 | -148.50868 | 34567 ft | 617 kts | 198° |
| 2026-04-18 12:01 | 64.01120 | -148.53425 | 35207 ft | 592 kts | 198° |
| 2026-04-18 12:01 | 63.97255 | -148.55854 | 35899 ft | 565 kts | 198° |
| 2026-04-18 12:02 | 63.93453 | -148.58252 | 36623 ft | 568 kts | 198° |
| 2026-04-18 12:02 | 63.89736 | -148.60587 | 37372 ft | 542 kts | 198° |
| 2026-04-18 12:02 | 63.87333 | -148.62091 | 37888 ft | 540 kts | 198° |
| 2026-04-18 12:02 | 63.83715 | -148.64338 | 38664 ft | 538 kts | 198° |
| 2026-04-18 12:03 | 63.80079 | -148.66610 | 38975 ft | 545 kts | 198° |
| 2026-04-18 12:03 | 63.76406 | -148.68913 | 39465 ft | 549 kts | 198° |
| 2026-04-18 12:03 | 63.72680 | -148.71269 | 39681 ft | 561 kts | 198° |
| 2026-04-18 12:03 | 63.68879 | -148.73672 | 39799 ft | 578 kts | 198° |
| 2026-04-18 12:04 | 63.64946 | -148.76149 | 39842 ft | 586 kts | 198° |
| 2026-04-18 12:04 | 63.61069 | -148.78568 | 39885 ft | 570 kts | 198° |
| 2026-04-18 12:04 | 63.57363 | -148.80867 | 40402 ft | 552 kts | 198° |
| 2026-04-18 12:04 | 63.53643 | -148.83171 | 40666 ft | 559 kts | 198° |
| 2026-04-18 12:05 | 63.49799 | -148.85538 | 40790 ft | 573 kts | 198° |
| 2026-04-18 12:05 | 63.45968 | -148.87892 | 40852 ft | 584 kts | 198° |
| 2026-04-18 12:05 | 63.42069 | -148.90276 | 40877 ft | 574 kts | 198° |
| 2026-04-18 12:06 | 63.34381 | -148.94984 | 40904 ft | 575 kts | 198° |
| 2026-04-18 12:06 | 63.26696 | -148.99669 | 40903 ft | 572 kts | 198° |
| 2026-04-18 12:07 | 63.18992 | -149.04331 | 40899 ft | 573 kts | 198° |
| 2026-04-18 12:07 | 63.11309 | -149.08947 | 40900 ft | 573 kts | 198° |
| 2026-04-18 12:08 | 63.03614 | -149.13545 | 40899 ft | 573 kts | 198° |
| 2026-04-18 12:08 | 62.95920 | -149.18124 | 40893 ft | 573 kts | 198° |
| 2026-04-18 12:09 | 62.88260 | -149.22657 | 40894 ft | 573 kts | 198° |
| 2026-04-18 12:09 | 62.80557 | -149.27190 | 40889 ft | 573 kts | 198° |
| 2026-04-18 12:10 | 62.72845 | -149.31701 | 40890 ft | 573 kts | 198° |
| 2026-04-18 12:10 | 62.65150 | -149.36179 | 40890 ft | 574 kts | 198° |
| 2026-04-18 12:11 | 62.57423 | -149.40654 | 40886 ft | 573 kts | 198° |
| 2026-04-18 12:11 | 62.49705 | -149.45101 | 40890 ft | 574 kts | 198° |
| 2026-04-18 12:12 | 62.41977 | -149.49526 | 40892 ft | 573 kts | 198° |
| 2026-04-18 12:12 | 62.34310 | -149.53894 | 40913 ft | 575 kts | 198° |
| 2026-04-18 12:13 | 62.26566 | -149.58282 | 40915 ft | 574 kts | 198° |
| 2026-04-18 12:13 | 62.18828 | -149.62644 | 40902 ft | 576 kts | 198° |
| 2026-04-18 12:14 | 62.11132 | -149.66958 | 40900 ft | 574 kts | 198° |
| 2026-04-18 12:14 | 62.03394 | -149.71275 | 40890 ft | 576 kts | 198° |
| 2026-04-18 12:15 | 61.95643 | -149.75575 | 40886 ft | 575 kts | 198° |
| 2026-04-18 12:15 | 61.87898 | -149.79851 | 40899 ft | 576 kts | 198° |
| 2026-04-18 12:16 | 61.80132 | -149.84115 | 40917 ft | 575 kts | 198° |
| 2026-04-18 12:16 | 61.72367 | -149.88357 | 40933 ft | 577 kts | 198° |
| 2026-04-18 12:17 | 61.64597 | -149.92578 | 40940 ft | 575 kts | 198° |
| 2026-04-18 12:17 | 61.56813 | -149.96207 | 40946 ft | 581 kts | 188° |
| 2026-04-18 12:18 | 61.48671 | -149.96374 | 40953 ft | 586 kts | 183° |
| 2026-04-18 12:18 | 61.40524 | -149.96328 | 40937 ft | 585 kts | 182° |
| 2026-04-18 12:19 | 61.32372 | -149.96238 | 40938 ft | 587 kts | 183° |
| 2026-04-18 12:19 | 61.24208 | -149.96167 | 40955 ft | 585 kts | 183° |
| 2026-04-18 12:20 | 61.16086 | -149.94827 | 40988 ft | 595 kts | 164° |
| 2026-04-18 12:20 | 61.12310 | -149.91229 | 41026 ft | 605 kts | 147° |
| 2026-04-18 12:20 | 61.09108 | -149.85528 | 41051 ft | 610 kts | 130° |
| 2026-04-18 12:21 | 61.04194 | -149.71209 | 41004 ft | 610 kts | 126° |
| 2026-04-18 12:21 | 60.99104 | -149.57265 | 40952 ft | 606 kts | 134° |
| 2026-04-18 12:22 | 60.93389 | -149.44460 | 40956 ft | 609 kts | 134° |
| 2026-04-18 12:22 | 60.87689 | -149.31817 | 40953 ft | 606 kts | 134° |
| 2026-04-18 12:23 | 60.81913 | -149.19160 | 40951 ft | 607 kts | 134° |
| 2026-04-18 12:23 | 60.76173 | -149.06644 | 40947 ft | 606 kts | 134° |
| 2026-04-18 12:24 | 60.70372 | -148.94107 | 40941 ft | 606 kts | 135° |
| 2026-04-18 12:24 | 60.64539 | -148.81674 | 40942 ft | 606 kts | 135° |
| 2026-04-18 12:25 | 60.58690 | -148.69288 | 40940 ft | 606 kts | 135° |
| 2026-04-18 12:25 | 60.52851 | -148.56928 | 40944 ft | 605 kts | 135° |
| 2026-04-18 12:26 | 60.47008 | -148.44603 | 40940 ft | 606 kts | 135° |
| 2026-04-18 12:26 | 60.41192 | -148.32430 | 40942 ft | 605 kts | 135° |
| 2026-04-18 12:27 | 60.35311 | -148.20217 | 40941 ft | 605 kts | 135° |
| 2026-04-18 12:27 | 60.29431 | -148.08064 | 40946 ft | 605 kts | 135° |
| 2026-04-18 12:28 | 60.23536 | -147.95927 | 40945 ft | 604 kts | 135° |
| 2026-04-18 12:28 | 60.17653 | -147.83877 | 40945 ft | 605 kts | 135° |
| 2026-04-18 12:29 | 60.11736 | -147.71837 | 40944 ft | 603 kts | 136° |
| 2026-04-18 12:29 | 60.05831 | -147.59892 | 40940 ft | 604 kts | 136° |
| 2026-04-18 12:30 | 59.99900 | -147.47953 | 40934 ft | 603 kts | 136° |
| 2026-04-18 12:30 | 59.94019 | -147.36173 | 40928 ft | 605 kts | 136° |
| 2026-04-18 12:31 | 59.88078 | -147.24335 | 40922 ft | 602 kts | 136° |
| 2026-04-18 12:31 | 59.82136 | -147.12565 | 40925 ft | 604 kts | 136° |
| 2026-04-18 12:32 | 59.76180 | -147.00830 | 40926 ft | 602 kts | 136° |
| 2026-04-18 12:32 | 59.70200 | -146.89108 | 40926 ft | 603 kts | 136° |
| 2026-04-18 12:33 | 59.64241 | -146.77487 | 40929 ft | 602 kts | 136° |
| 2026-04-18 12:33 | 59.58263 | -146.65895 | 40935 ft | 616 kts | 136° |
| 2026-04-18 12:33 | 59.55150 | -146.59882 | 40938 ft | 635 kts | 136° |
| 2026-04-18 12:34 | 59.51952 | -146.53722 | 40937 ft | 653 kts | 136° |
| 2026-04-18 12:34 | 59.48648 | -146.47374 | 40939 ft | 671 kts | 136° |
| 2026-04-18 12:34 | 59.45263 | -146.40889 | 40937 ft | 688 kts | 136° |
| 2026-04-18 12:34 | 59.41965 | -146.33931 | 40948 ft | 703 kts | 129° |
| 2026-04-18 12:35 | 59.38832 | -146.26423 | 40946 ft | 717 kts | 131° |
| 2026-04-18 12:35 | 59.35603 | -146.18846 | 40940 ft | 729 kts | 130° |
| 2026-04-18 12:35 | 59.32326 | -146.11139 | 40935 ft | 741 kts | 130° |
| 2026-04-18 12:36 | 59.25657 | -145.95422 | 40927 ft | 760 kts | 130° |
| 2026-04-18 12:36 | 59.18820 | -145.79371 | 40926 ft | 775 kts | 130° |
| 2026-04-18 12:37 | 59.11889 | -145.63248 | 40930 ft | 787 kts | 130° |
| 2026-04-18 12:37 | 59.04806 | -145.46801 | 40933 ft | 797 kts | 130° |
| 2026-04-18 12:38 | 58.97656 | -145.30233 | 40932 ft | 804 kts | 130° |
| 2026-04-18 12:38 | 58.90396 | -145.13554 | 40924 ft | 811 kts | 131° |
| 2026-04-18 12:39 | 58.83064 | -144.96898 | 40937 ft | 814 kts | 131° |
| 2026-04-18 12:39 | 58.75702 | -144.80283 | 40937 ft | 811 kts | 131° |
| 2026-04-18 12:40 | 58.68431 | -144.63957 | 40940 ft | 807 kts | 131° |
| 2026-04-18 12:40 | 58.61105 | -144.47616 | 40934 ft | 807 kts | 131° |
| 2026-04-18 12:41 | 58.53777 | -144.31400 | 40943 ft | 808 kts | 131° |
| 2026-04-18 12:41 | 58.46417 | -144.15235 | 40940 ft | 809 kts | 131° |
| 2026-04-18 12:42 | 58.39004 | -143.99061 | 40951 ft | 808 kts | 132° |
| 2026-04-18 12:42 | 58.31588 | -143.82989 | 40946 ft | 806 kts | 132° |
| 2026-04-18 12:43 | 58.24177 | -143.67032 | 40946 ft | 805 kts | 132° |
| 2026-04-18 12:43 | 58.16739 | -143.51133 | 40943 ft | 805 kts | 132° |
| 2026-04-18 12:44 | 58.09282 | -143.35307 | 40943 ft | 806 kts | 132° |
| 2026-04-18 12:44 | 58.01802 | -143.19535 | 40947 ft | 805 kts | 133° |
| 2026-04-18 12:45 | 57.94364 | -143.03952 | 40949 ft | 804 kts | 133° |
| 2026-04-18 12:45 | 57.86856 | -142.88332 | 40945 ft | 804 kts | 133° |
| 2026-04-18 12:46 | 57.79342 | -142.72808 | 40948 ft | 803 kts | 133° |
| 2026-04-18 12:46 | 57.71867 | -142.57462 | 40947 ft | 803 kts | 133° |
| 2026-04-18 12:47 | 57.64307 | -142.42045 | 40951 ft | 803 kts | 133° |
| 2026-04-18 12:47 | 57.56740 | -142.26717 | 40951 ft | 802 kts | 133° |
| 2026-04-18 12:48 | 57.49198 | -142.11541 | 40950 ft | 802 kts | 133° |
| 2026-04-18 12:48 | 57.41604 | -141.96356 | 40951 ft | 801 kts | 134° |
| 2026-04-18 12:49 | 57.34030 | -141.81313 | 40951 ft | 800 kts | 134° |
| 2026-04-18 12:49 | 57.26400 | -141.66257 | 40948 ft | 800 kts | 134° |
| 2026-04-18 12:50 | 57.18760 | -141.51278 | 40946 ft | 800 kts | 134° |
| 2026-04-18 12:50 | 57.12415 | -141.38910 | 40941 ft | 799 kts | 134° |
| 2026-04-18 12:51 | 57.03515 | -141.21673 | 40943 ft | 798 kts | 134° |
| 2026-04-18 12:51 | 56.95841 | -141.06916 | 40937 ft | 798 kts | 134° |
| 2026-04-18 12:52 | 56.89457 | -140.94709 | 40935 ft | 798 kts | 135° |
| 2026-04-18 12:52 | 56.81755 | -140.80065 | 40937 ft | 798 kts | 135° |
| 2026-04-18 12:53 | 56.74032 | -140.65477 | 40937 ft | 797 kts | 135° |
| 2026-04-18 12:53 | 56.66349 | -140.51057 | 40932 ft | 797 kts | 135° |
| 2026-04-18 12:54 | 56.58619 | -140.36636 | 40930 ft | 796 kts | 135° |
| 2026-04-18 12:54 | 56.50908 | -140.22339 | 40926 ft | 795 kts | 135° |
| 2026-04-18 12:55 | 56.43126 | -140.08003 | 40922 ft | 795 kts | 135° |
| 2026-04-18 12:55 | 56.35401 | -139.93859 | 40922 ft | 795 kts | 136° |
| 2026-04-18 12:56 | 56.27637 | -139.79728 | 40920 ft | 795 kts | 136° |
| 2026-04-18 12:56 | 56.19818 | -139.65586 | 40918 ft | 794 kts | 136° |
| 2026-04-18 12:57 | 56.12007 | -139.51545 | 40917 ft | 794 kts | 136° |
| 2026-04-18 12:57 | 56.04230 | -139.37650 | 40914 ft | 794 kts | 136° |
| 2026-04-18 12:58 | 55.96376 | -139.23700 | 40912 ft | 794 kts | 136° |
| 2026-04-18 12:58 | 55.88566 | -139.09913 | 40905 ft | 794 kts | 136° |
| 2026-04-18 12:59 | 55.80688 | -138.96091 | 40912 ft | 793 kts | 136° |
| 2026-04-18 12:59 | 55.72813 | -138.82354 | 40908 ft | 792 kts | 137° |
| 2026-04-18 13:00 | 55.64988 | -138.68786 | 40904 ft | 791 kts | 137° |
| 2026-04-18 13:00 | 55.57085 | -138.55166 | 40894 ft | 791 kts | 137° |
| 2026-04-18 13:01 | 55.49228 | -138.41704 | 40899 ft | 790 kts | 137° |
| 2026-04-18 13:01 | 55.41351 | -138.28284 | 40889 ft | 790 kts | 137° |
| 2026-04-18 13:02 | 55.33417 | -138.14845 | 40895 ft | 789 kts | 137° |
| 2026-04-18 13:02 | 55.25493 | -138.01507 | 40893 ft | 788 kts | 137° |
| 2026-04-18 13:03 | 55.17549 | -137.88211 | 40888 ft | 787 kts | 137° |
| 2026-04-18 13:03 | 55.05717 | -137.68549 | 40891 ft | 786 kts | 138° |
| 2026-04-18 13:04 | 54.97792 | -137.55471 | 40882 ft | 785 kts | 138° |
| 2026-04-18 13:04 | 54.89841 | -137.42425 | 40884 ft | 785 kts | 138° |
| 2026-04-18 13:05 | 54.81891 | -137.29459 | 40881 ft | 784 kts | 138° |
| 2026-04-18 13:05 | 54.73926 | -137.16540 | 40881 ft | 783 kts | 138° |
| 2026-04-18 13:06 | 54.65951 | -137.03675 | 40878 ft | 782 kts | 139° |
| 2026-04-18 13:06 | 54.57979 | -136.90890 | 40878 ft | 782 kts | 139° |
| 2026-04-18 13:07 | 54.49990 | -136.78151 | 40876 ft | 782 kts | 139° |
| 2026-04-18 13:07 | 54.41999 | -136.65474 | 40876 ft | 782 kts | 139° |
| 2026-04-18 13:08 | 54.34037 | -136.52915 | 40872 ft | 781 kts | 139° |
| 2026-04-18 13:08 | 54.26019 | -136.40341 | 40873 ft | 781 kts | 139° |
| 2026-04-18 13:09 | 54.18006 | -136.27840 | 40872 ft | 780 kts | 139° |
| 2026-04-18 13:09 | 54.09966 | -136.15366 | 40870 ft | 780 kts | 139° |
| 2026-04-18 13:10 | 54.01930 | -136.02981 | 40868 ft | 779 kts | 140° |
| 2026-04-18 13:10 | 53.93244 | -135.92117 | 40873 ft | 775 kts | 146° |
| 2026-04-18 13:11 | 53.84458 | -135.81499 | 40866 ft | 775 kts | 147° |
| 2026-04-18 13:11 | 53.75654 | -135.70964 | 40862 ft | 775 kts | 147° |
| 2026-04-18 13:12 | 53.66902 | -135.60535 | 40860 ft | 773 kts | 147° |
| 2026-04-18 13:12 | 53.58103 | -135.50140 | 40857 ft | 772 kts | 147° |
| 2026-04-18 13:13 | 53.49329 | -135.39893 | 40862 ft | 771 kts | 147° |
| 2026-04-18 13:13 | 53.40551 | -135.29692 | 40859 ft | 771 kts | 147° |
| 2026-04-18 13:14 | 53.31713 | -135.19436 | 40857 ft | 772 kts | 147° |
| 2026-04-18 13:14 | 53.22869 | -135.09216 | 40854 ft | 773 kts | 147° |
| 2026-04-18 13:15 | 53.14060 | -134.99105 | 40853 ft | 774 kts | 147° |
| 2026-04-18 13:15 | 53.05180 | -134.88976 | 40848 ft | 775 kts | 148° |
| 2026-04-18 13:16 | 52.96280 | -134.78871 | 40847 ft | 775 kts | 148° |
| 2026-04-18 13:16 | 52.87358 | -134.68786 | 40849 ft | 776 kts | 148° |
| 2026-04-18 13:17 | 52.78447 | -134.58768 | 40848 ft | 776 kts | 148° |
| 2026-04-18 13:17 | 52.69489 | -134.48750 | 40851 ft | 776 kts | 148° |
| 2026-04-18 13:18 | 52.60535 | -134.38789 | 40851 ft | 776 kts | 148° |
| 2026-04-18 13:18 | 52.51667 | -134.28969 | 40848 ft | 776 kts | 148° |
| 2026-04-18 13:19 | 52.42695 | -134.19083 | 40845 ft | 776 kts | 148° |
| 2026-04-18 13:19 | 52.33695 | -134.09217 | 40847 ft | 776 kts | 148° |
| 2026-04-18 13:20 | 52.24718 | -133.99426 | 40850 ft | 776 kts | 148° |
| 2026-04-18 13:20 | 52.15714 | -133.89653 | 40842 ft | 776 kts | 148° |
| 2026-04-18 13:21 | 52.06709 | -133.79926 | 40852 ft | 776 kts | 149° |
| 2026-04-18 13:21 | 51.97708 | -133.70250 | 40847 ft | 776 kts | 149° |
| 2026-04-18 13:22 | 51.88788 | -133.60709 | 40847 ft | 776 kts | 149° |
| 2026-04-18 13:22 | 51.79792 | -133.51130 | 40857 ft | 775 kts | 149° |
| 2026-04-18 13:23 | 51.70765 | -133.41566 | 40854 ft | 775 kts | 149° |
| 2026-04-18 13:23 | 51.61752 | -133.32063 | 40852 ft | 775 kts | 149° |
| 2026-04-18 13:24 | 51.52700 | -133.22563 | 40854 ft | 775 kts | 149° |
| 2026-04-18 13:24 | 51.43668 | -133.13131 | 40851 ft | 774 kts | 149° |
| 2026-04-18 13:25 | 51.34611 | -133.03719 | 40852 ft | 774 kts | 149° |
| 2026-04-18 13:25 | 51.25565 | -132.94362 | 40852 ft | 774 kts | 149° |
| 2026-04-18 13:26 | 51.16584 | -132.85117 | 40855 ft | 774 kts | 149° |
| 2026-04-18 13:26 | 51.07528 | -132.75838 | 40859 ft | 773 kts | 149° |
| 2026-04-18 13:27 | 50.98456 | -132.66592 | 40858 ft | 773 kts | 149° |
| 2026-04-18 13:27 | 50.89396 | -132.57414 | 40859 ft | 773 kts | 150° |
| 2026-04-18 13:28 | 50.80350 | -132.48296 | 40859 ft | 773 kts | 150° |
| 2026-04-18 13:28 | 50.71278 | -132.39194 | 40858 ft | 773 kts | 150° |
| 2026-04-18 13:29 | 50.62250 | -132.30178 | 40861 ft | 773 kts | 150° |
| 2026-04-18 13:29 | 50.53149 | -132.21130 | 40864 ft | 773 kts | 150° |
| 2026-04-18 13:30 | 50.44224 | -132.12298 | 40862 ft | 773 kts | 150° |
| 2026-04-18 13:30 | 50.35323 | -132.03529 | 40865 ft | 773 kts | 150° |
| 2026-04-18 13:31 | 50.26217 | -131.94600 | 40866 ft | 773 kts | 150° |
| 2026-04-18 13:31 | 50.17199 | -131.86060 | 40873 ft | 770 kts | 153° |
| 2026-04-18 13:32 | 50.08264 | -131.77960 | 40868 ft | 770 kts | 152° |
| 2026-04-18 13:32 | 49.99125 | -131.69742 | 40871 ft | 770 kts | 153° |
| 2026-04-18 13:33 | 49.89862 | -131.61559 | 40873 ft | 770 kts | 153° |
| 2026-04-18 13:33 | 49.80709 | -131.53532 | 40878 ft | 771 kts | 153° |
| 2026-04-18 13:34 | 49.71448 | -131.45434 | 40875 ft | 771 kts | 153° |
| 2026-04-18 13:34 | 49.62163 | -131.37333 | 40879 ft | 771 kts | 153° |
| 2026-04-18 13:35 | 49.52959 | -131.29340 | 40878 ft | 771 kts | 153° |
| 2026-04-18 13:35 | 49.43595 | -131.21252 | 40884 ft | 771 kts | 153° |
| 2026-04-18 13:36 | 49.34384 | -131.13335 | 40892 ft | 771 kts | 153° |
| 2026-04-18 13:36 | 49.25070 | -131.05359 | 40888 ft | 771 kts | 153° |
| 2026-04-18 13:37 | 49.15709 | -130.97376 | 40886 ft | 771 kts | 153° |
| 2026-04-18 13:37 | 49.06374 | -130.89451 | 40893 ft | 771 kts | 153° |
| 2026-04-18 13:38 | 48.96988 | -130.81517 | 40894 ft | 771 kts | 153° |
| 2026-04-18 13:38 | 48.87627 | -130.73640 | 40895 ft | 771 kts | 153° |
| 2026-04-18 13:39 | 48.78281 | -130.65814 | 40898 ft | 771 kts | 154° |
| 2026-04-18 13:39 | 48.68927 | -130.58012 | 40897 ft | 771 kts | 154° |
| 2026-04-18 13:40 | 48.61431 | -130.51784 | 40902 ft | 771 kts | 154° |
| 2026-04-18 13:40 | 48.50830 | -130.43010 | 40905 ft | 771 kts | 154° |
| 2026-04-18 13:41 | 48.41541 | -130.35358 | 40908 ft | 771 kts | 154° |
| 2026-04-18 13:41 | 48.32248 | -130.27735 | 40906 ft | 771 kts | 154° |
| 2026-04-18 13:42 | 48.24471 | -130.21379 | 40912 ft | 771 kts | 154° |
| 2026-04-18 13:42 | 48.15057 | -130.13719 | 40913 ft | 771 kts | 154° |
| 2026-04-18 13:43 | 48.05616 | -130.06070 | 40917 ft | 771 kts | 154° |
| 2026-04-18 13:43 | 47.96190 | -129.98465 | 40922 ft | 771 kts | 154° |
| 2026-04-18 13:44 | 47.86749 | -129.90878 | 40920 ft | 771 kts | 154° |
| 2026-04-18 13:44 | 47.77293 | -129.83311 | 40923 ft | 771 kts | 154° |
| 2026-04-18 13:45 | 47.67852 | -129.75785 | 40921 ft | 770 kts | 154° |
| 2026-04-18 13:45 | 47.58410 | -129.68265 | 40929 ft | 770 kts | 154° |
| 2026-04-18 13:46 | 47.48962 | -129.60774 | 40927 ft | 770 kts | 154° |
| 2026-04-18 13:46 | 47.39576 | -129.53363 | 40930 ft | 769 kts | 154° |
| 2026-04-18 13:47 | 47.30068 | -129.45885 | 40934 ft | 769 kts | 154° |
| 2026-04-18 13:47 | 47.20694 | -129.38542 | 40938 ft | 769 kts | 154° |
| 2026-04-18 13:48 | 47.11239 | -129.31165 | 40939 ft | 769 kts | 155° |
| 2026-04-18 13:48 | 47.01786 | -129.23822 | 40943 ft | 769 kts | 155° |
| 2026-04-18 13:49 | 46.92318 | -129.16496 | 40941 ft | 769 kts | 155° |
| 2026-04-18 13:49 | 46.82847 | -129.09196 | 40944 ft | 769 kts | 155° |
| 2026-04-18 13:50 | 46.73381 | -129.01928 | 40951 ft | 769 kts | 155° |
| 2026-04-18 13:50 | 46.63973 | -128.94735 | 40954 ft | 769 kts | 155° |
| 2026-04-18 13:51 | 46.54437 | -128.87476 | 40961 ft | 769 kts | 155° |
| 2026-04-18 13:51 | 46.45012 | -128.80326 | 40962 ft | 769 kts | 155° |
| 2026-04-18 13:52 | 46.35511 | -128.73146 | 40966 ft | 769 kts | 155° |
| 2026-04-18 13:52 | 46.26014 | -128.65999 | 40967 ft | 769 kts | 155° |
| 2026-04-18 13:53 | 46.16611 | -128.58952 | 40971 ft | 770 kts | 155° |
| 2026-04-18 13:53 | 46.07091 | -128.51844 | 40976 ft | 770 kts | 155° |
| 2026-04-18 13:54 | 45.97630 | -128.44805 | 40978 ft | 770 kts | 155° |
| 2026-04-18 13:54 | 45.88136 | -128.37771 | 40980 ft | 770 kts | 155° |
| 2026-04-18 13:55 | 45.78599 | -128.30733 | 40991 ft | 770 kts | 155° |
| 2026-04-18 13:55 | 45.69087 | -128.23741 | 40984 ft | 770 kts | 155° |
| 2026-04-18 13:56 | 45.59649 | -128.16828 | 40991 ft | 770 kts | 155° |
| 2026-04-18 13:56 | 45.50092 | -128.09854 | 40997 ft | 771 kts | 155° |
| 2026-04-18 13:57 | 45.40533 | -128.02907 | 40992 ft | 771 kts | 155° |
| 2026-04-18 13:57 | 45.30977 | -127.95989 | 41008 ft | 771 kts | 155° |
| 2026-04-18 13:58 | 45.21397 | -127.89080 | 41017 ft | 772 kts | 155° |
| 2026-04-18 13:58 | 45.11874 | -127.82236 | 41020 ft | 772 kts | 155° |
| 2026-04-18 13:59 | 45.02280 | -127.75368 | 41023 ft | 772 kts | 155° |
| 2026-04-18 13:59 | 44.92689 | -127.68530 | 41026 ft | 772 kts | 155° |
| 2026-04-18 14:00 | 44.83081 | -127.61705 | 41028 ft | 772 kts | 155° |
| 2026-04-18 14:00 | 44.73466 | -127.54898 | 41032 ft | 773 kts | 155° |
| 2026-04-18 14:01 | 44.64000 | -127.48222 | 41036 ft | 773 kts | 155° |
| 2026-04-18 14:01 | 44.54484 | -127.41537 | 41041 ft | 773 kts | 155° |
| 2026-04-18 14:02 | 44.45117 | -127.34982 | 41059 ft | 773 kts | 155° |
| 2026-04-18 14:02 | 44.35942 | -127.28583 | 41051 ft | 774 kts | 155° |
| 2026-04-18 14:03 | 44.26413 | -127.21959 | 41062 ft | 774 kts | 155° |
| 2026-04-18 14:03 | 44.17677 | -127.15908 | 41061 ft | 774 kts | 155° |
| 2026-04-18 14:04 | 44.08836 | -127.09804 | 41064 ft | 774 kts | 155° |
| 2026-04-18 14:04 | 43.99235 | -127.03200 | 41064 ft | 774 kts | 155° |
| 2026-04-18 14:05 | 43.89625 | -126.96616 | 41069 ft | 775 kts | 156° |
| 2026-04-18 14:05 | 43.80091 | -126.90105 | 41071 ft | 775 kts | 156° |
| 2026-04-18 14:06 | 43.71630 | -126.84346 | 41070 ft | 775 kts | 156° |
| 2026-04-18 14:06 | 43.62489 | -126.78144 | 41075 ft | 775 kts | 156° |
| 2026-04-18 14:07 | 43.53527 | -126.72084 | 41076 ft | 776 kts | 156° |
| 2026-04-18 14:07 | 43.44695 | -126.66123 | 41081 ft | 776 kts | 156° |
| 2026-04-18 14:08 | 43.31386 | -126.57260 | 41084 ft | 776 kts | 156° |
| 2026-04-18 14:09 | 43.21760 | -126.50875 | 41083 ft | 776 kts | 156° |
| 2026-04-18 14:09 | 43.12132 | -126.44512 | 41084 ft | 777 kts | 156° |
| 2026-04-18 14:10 | 43.03892 | -126.39082 | 41092 ft | 777 kts | 156° |
| 2026-04-18 14:10 | 42.95670 | -126.33678 | 41092 ft | 777 kts | 156° |
| 2026-04-18 14:11 | 42.87099 | -126.28065 | 41092 ft | 777 kts | 156° |
| 2026-04-18 14:11 | 42.77326 | -126.21686 | 41095 ft | 778 kts | 156° |
| 2026-04-18 14:12 | 42.67449 | -126.16745 | 41115 ft | 770 kts | 172° |
| 2026-04-18 14:12 | 42.57913 | -126.14746 | 41105 ft | 768 kts | 173° |
| 2026-04-18 14:13 | 42.47530 | -126.12524 | 41096 ft | 769 kts | 173° |
| 2026-04-18 14:13 | 42.36920 | -126.10199 | 41096 ft | 770 kts | 173° |
| 2026-04-18 14:14 | 42.26289 | -126.07890 | 41097 ft | 770 kts | 173° |
| 2026-04-18 14:14 | 42.15736 | -126.05568 | 41095 ft | 771 kts | 172° |
| 2026-04-18 14:15 | 42.05180 | -126.03216 | 41097 ft | 771 kts | 172° |
| 2026-04-18 14:15 | 41.94978 | -126.00960 | 41094 ft | 771 kts | 172° |
| 2026-04-18 14:16 | 41.84728 | -125.98725 | 41098 ft | 772 kts | 173° |
| 2026-04-18 14:16 | 41.74314 | -125.96466 | 41102 ft | 772 kts | 173° |
| 2026-04-18 14:17 | 41.63890 | -125.94198 | 41105 ft | 772 kts | 173° |
| 2026-04-18 14:17 | 41.48207 | -125.90789 | 41104 ft | 773 kts | 173° |
| 2026-04-18 14:18 | 41.32354 | -125.87377 | 41102 ft | 773 kts | 173° |
| 2026-04-18 14:19 | 41.19393 | -125.84601 | 41108 ft | 774 kts | 173° |
| 2026-04-18 14:20 | 41.06486 | -125.81837 | 41105 ft | 774 kts | 173° |
| 2026-04-18 14:20 | 40.98202 | -125.80071 | 41107 ft | 774 kts | 173° |
| 2026-04-18 14:21 | 40.89103 | -125.78139 | 41105 ft | 774 kts | 173° |
| 2026-04-18 14:21 | 40.79881 | -125.76187 | 41111 ft | 774 kts | 173° |
| 2026-04-18 14:22 | 40.66934 | -125.73455 | 41108 ft | 775 kts | 173° |
| 2026-04-18 14:23 | 40.53831 | -125.70697 | 41105 ft | 775 kts | 173° |
| 2026-04-18 14:23 | 40.39135 | -125.67621 | 41107 ft | 775 kts | 173° |
| 2026-04-18 14:24 | 40.23856 | -125.64436 | 41106 ft | 775 kts | 173° |
| 2026-04-18 14:25 | 40.13128 | -125.62208 | 41102 ft | 776 kts | 173° |
| 2026-04-18 14:25 | 40.03018 | -125.60113 | 41102 ft | 776 kts | 173° |
| 2026-04-18 14:26 | 39.92339 | -125.57909 | 41105 ft | 776 kts | 173° |
| 2026-04-18 14:26 | 39.81924 | -125.55768 | 41104 ft | 776 kts | 173° |
| 2026-04-18 14:27 | 39.71301 | -125.53590 | 41104 ft | 777 kts | 173° |
| 2026-04-18 14:27 | 39.60805 | -125.51443 | 41105 ft | 777 kts | 173° |
| 2026-04-18 14:28 | 39.50599 | -125.49361 | 41103 ft | 777 kts | 173° |
| 2026-04-18 14:28 | 39.40149 | -125.47237 | 41104 ft | 778 kts | 173° |
| 2026-04-18 14:29 | 39.29857 | -125.45152 | 41105 ft | 778 kts | 173° |
| 2026-04-18 14:29 | 39.21510 | -125.43465 | 41102 ft | 778 kts | 173° |
| 2026-04-18 14:30 | 39.10865 | -125.41321 | 41102 ft | 778 kts | 173° |
| 2026-04-18 14:30 | 39.00307 | -125.39200 | 41105 ft | 778 kts | 173° |
| 2026-04-18 14:31 | 38.89626 | -125.37059 | 41101 ft | 779 kts | 173° |
| 2026-04-18 14:31 | 38.79029 | -125.34942 | 41104 ft | 779 kts | 174° |
| 2026-04-18 14:32 | 38.68453 | -125.32837 | 41106 ft | 779 kts | 174° |
| 2026-04-18 14:32 | 38.60204 | -125.31199 | 41108 ft | 779 kts | 174° |
| 2026-04-18 14:33 | 38.52423 | -125.29657 | 41102 ft | 780 kts | 174° |
| 2026-04-18 14:33 | 38.44587 | -125.28107 | 41107 ft | 780 kts | 174° |
| 2026-04-18 14:34 | 38.37272 | -125.26665 | 41107 ft | 780 kts | 174° |
| 2026-04-18 14:34 | 38.29503 | -125.25136 | 41107 ft | 780 kts | 174° |
| 2026-04-18 14:35 | 38.21868 | -125.23637 | 41105 ft | 780 kts | 174° |
| 2026-04-18 14:35 | 38.13655 | -125.22028 | 41104 ft | 781 kts | 174° |
| 2026-04-18 14:36 | 38.05313 | -125.20396 | 41109 ft | 781 kts | 174° |
| 2026-04-18 14:36 | 37.97874 | -125.18944 | 41109 ft | 781 kts | 174° |
| 2026-04-18 14:37 | 37.89364 | -125.17286 | 41107 ft | 781 kts | 174° |
| 2026-04-18 14:37 | 37.78568 | -125.15191 | 41107 ft | 781 kts | 174° |
| 2026-04-18 14:38 | 37.68002 | -125.13145 | 41110 ft | 782 kts | 174° |
| 2026-04-18 14:38 | 37.59911 | -125.11583 | 41108 ft | 782 kts | 174° |
| 2026-04-18 14:39 | 37.51098 | -125.09884 | 41109 ft | 782 kts | 174° |
| 2026-04-18 14:39 | 37.41885 | -125.08113 | 41109 ft | 782 kts | 174° |
| 2026-04-18 14:40 | 37.33033 | -125.06416 | 41106 ft | 782 kts | 174° |
| 2026-04-18 14:40 | 37.22397 | -125.04380 | 41109 ft | 782 kts | 174° |
| 2026-04-18 14:41 | 37.13334 | -125.02652 | 41113 ft | 782 kts | 174° |
| 2026-04-18 14:41 | 37.04855 | -125.01038 | 41115 ft | 782 kts | 174° |
| 2026-04-18 14:42 | 36.96078 | -124.98213 | 41117 ft | 791 kts | 158° |
| 2026-04-18 14:42 | 36.89447 | -124.92882 | 41139 ft | 801 kts | 140° |
| 2026-04-18 14:43 | 36.83249 | -124.83042 | 41144 ft | 810 kts | 120° |
| 2026-04-18 14:43 | 36.78048 | -124.70560 | 41118 ft | 810 kts | 119° |
| 2026-04-18 14:44 | 36.73999 | -124.61699 | 41102 ft | 810 kts | 122° |
| 2026-04-18 14:44 | 36.70149 | -124.53903 | 41104 ft | 810 kts | 123° |
| 2026-04-18 14:45 | 36.65196 | -124.44129 | 41099 ft | 809 kts | 124° |
| 2026-04-18 14:45 | 36.60271 | -124.36056 | 41097 ft | 807 kts | 129° |
| 2026-04-18 14:46 | 36.55091 | -124.27587 | 41101 ft | 806 kts | 128° |
| 2026-04-18 14:46 | 36.49958 | -124.19268 | 41098 ft | 806 kts | 129° |
| 2026-04-18 14:47 | 36.44412 | -124.10354 | 41097 ft | 806 kts | 129° |
| 2026-04-18 14:47 | 36.38902 | -124.01526 | 41097 ft | 807 kts | 129° |
| 2026-04-18 14:48 | 36.34264 | -123.94111 | 41094 ft | 808 kts | 129° |
| 2026-04-18 14:48 | 36.29580 | -123.86671 | 41094 ft | 808 kts | 129° |
| 2026-04-18 14:49 | 36.24306 | -123.78350 | 41090 ft | 808 kts | 129° |
| 2026-04-18 14:49 | 36.19216 | -123.70343 | 41099 ft | 809 kts | 129° |
| 2026-04-18 14:50 | 36.13514 | -123.61377 | 41094 ft | 809 kts | 129° |
| 2026-04-18 14:50 | 36.08076 | -123.52826 | 41091 ft | 809 kts | 129° |
| 2026-04-18 14:51 | 36.02956 | -123.44789 | 41088 ft | 809 kts | 129° |
| 2026-04-18 14:51 | 35.97525 | -123.36299 | 41079 ft | 810 kts | 129° |
| 2026-04-18 14:52 | 35.92434 | -123.28368 | 41087 ft | 810 kts | 129° |
| 2026-04-18 14:52 | 35.87580 | -123.20826 | 41084 ft | 810 kts | 129° |
| 2026-04-18 14:53 | 35.82967 | -123.13670 | 41081 ft | 810 kts | 129° |
| 2026-04-18 14:53 | 35.78281 | -123.06412 | 41083 ft | 810 kts | 129° |
| 2026-04-18 14:54 | 35.74288 | -123.00236 | 41089 ft | 810 kts | 129° |
| 2026-04-18 14:54 | 35.69602 | -122.93001 | 41082 ft | 810 kts | 130° |
| 2026-04-18 14:55 | 35.64721 | -122.85486 | 41081 ft | 811 kts | 130° |
| 2026-04-18 14:55 | 35.59562 | -122.77563 | 41081 ft | 811 kts | 130° |
| 2026-04-18 14:56 | 35.54182 | -122.69320 | 41090 ft | 811 kts | 130° |
| 2026-04-18 14:56 | 35.48761 | -122.61033 | 41065 ft | 811 kts | 130° |
| 2026-04-18 14:57 | 35.43833 | -122.53517 | 41062 ft | 811 kts | 130° |
| 2026-04-18 14:57 | 35.37972 | -122.44598 | 41073 ft | 811 kts | 130° |
| 2026-04-18 14:58 | 35.32101 | -122.35685 | 41074 ft | 812 kts | 130° |
| 2026-04-18 14:58 | 35.26217 | -122.26779 | 41071 ft | 812 kts | 130° |
| 2026-04-18 14:59 | 35.19696 | -122.16932 | 41068 ft | 812 kts | 130° |
| 2026-04-18 14:59 | 35.12578 | -122.06218 | 41062 ft | 812 kts | 130° |
| 2026-04-18 15:00 | 35.05449 | -121.95520 | 41061 ft | 812 kts | 130° |
| 2026-04-18 15:00 | 34.98352 | -121.84904 | 41059 ft | 812 kts | 130° |
| 2026-04-18 15:01 | 34.91186 | -121.74211 | 41058 ft | 812 kts | 130° |
| 2026-04-18 15:01 | 34.84035 | -121.63576 | 41056 ft | 812 kts | 130° |
| 2026-04-18 15:02 | 34.76865 | -121.52952 | 41055 ft | 812 kts | 130° |
| 2026-04-18 15:02 | 34.70179 | -121.43065 | 41053 ft | 812 kts | 130° |
| 2026-04-18 15:03 | 34.63413 | -121.33088 | 41051 ft | 812 kts | 130° |
| 2026-04-18 15:03 | 34.56805 | -121.23374 | 41048 ft | 812 kts | 130° |
| 2026-04-18 15:04 | 34.50311 | -121.13855 | 41049 ft | 812 kts | 130° |
| 2026-04-18 15:04 | 34.43556 | -121.03982 | 41048 ft | 812 kts | 130° |
| 2026-04-18 15:05 | 34.36627 | -120.93881 | 41042 ft | 812 kts | 130° |
| 2026-04-18 15:05 | 34.29398 | -120.83370 | 41035 ft | 812 kts | 130° |
| 2026-04-18 15:06 | 34.22218 | -120.72968 | 41037 ft | 811 kts | 130° |
| 2026-04-18 15:06 | 34.16597 | -120.64843 | 41036 ft | 811 kts | 130° |
| 2026-04-18 15:07 | 34.11163 | -120.57004 | 41038 ft | 811 kts | 130° |
| 2026-04-18 15:07 | 34.04927 | -120.48029 | 41041 ft | 811 kts | 130° |
| 2026-04-18 15:08 | 33.97969 | -120.38043 | 41048 ft | 811 kts | 130° |
| 2026-04-18 15:08 | 33.90851 | -120.27857 | 41048 ft | 811 kts | 131° |
| 2026-04-18 15:09 | 33.83658 | -120.17594 | 41044 ft | 811 kts | 131° |
| 2026-04-18 15:09 | 33.76713 | -120.06991 | 41041 ft | 812 kts | 120° |
| 2026-04-18 15:09 | 33.74431 | -120.00774 | 41062 ft | 777 kts | 94° |
| 2026-04-18 15:10 | 33.74942 | -119.94574 | 40975 ft | 731 kts | 71° |
| 2026-04-18 15:10 | 33.76499 | -119.88836 | 41094 ft | 725 kts | 69° |
| 2026-04-18 15:10 | 33.78018 | -119.83313 | 41051 ft | 701 kts | 70° |
| 2026-04-18 15:10 | 33.79360 | -119.77781 | 41035 ft | 681 kts | 73° |
| 2026-04-18 15:11 | 33.80534 | -119.72169 | 41031 ft | 691 kts | 74° |
| 2026-04-18 15:11 | 33.82267 | -119.60957 | 41024 ft | 677 kts | 82° |
| 2026-04-18 15:12 | 33.83436 | -119.49663 | 41012 ft | 679 kts | 81° |
| 2026-04-18 15:12 | 33.84562 | -119.38345 | 41003 ft | 680 kts | 81° |
| 2026-04-18 15:13 | 33.85659 | -119.27103 | 41012 ft | 681 kts | 81° |
| 2026-04-18 15:13 | 33.86719 | -119.16155 | 41030 ft | 681 kts | 82° |
| 2026-04-18 15:14 | 33.87721 | -119.05359 | 41038 ft | 679 kts | 82° |
| 2026-04-18 15:14 | 33.88676 | -118.94815 | 41037 ft | 680 kts | 82° |
| 2026-04-18 15:15 | 33.90130 | -118.78851 | 41031 ft | 680 kts | 82° |
| 2026-04-18 15:15 | 33.90640 | -118.73259 | 41025 ft | 658 kts | 82° |
| 2026-04-18 15:15 | 33.91129 | -118.67870 | 41024 ft | 634 kts | 82° |
| 2026-04-18 15:16 | 33.91494 | -118.63824 | 41025 ft | 616 kts | 82° |
| 2026-04-18 15:16 | 33.91923 | -118.59019 | 41028 ft | 596 kts | 82° |
| 2026-04-18 15:16 | 33.92337 | -118.54338 | 41033 ft | 576 kts | 82° |
| 2026-04-18 15:16 | 33.92760 | -118.49532 | 41038 ft | 561 kts | 82° |
| 2026-04-18 15:17 | 33.93011 | -118.44763 | 41049 ft | 583 kts | 92° |
| 2026-04-18 15:17 | 33.92273 | -118.39918 | 41079 ft | 604 kts | 109° |
| 2026-04-18 15:17 | 33.89442 | -118.32827 | 41059 ft | 593 kts | 116° |
| 2026-04-18 15:18 | 33.85715 | -118.23693 | 41027 ft | 591 kts | 116° |
| 2026-04-18 15:18 | 33.82099 | -118.14784 | 41020 ft | 590 kts | 116° |
| 2026-04-18 15:19 | 33.78844 | -118.06018 | 40992 ft | 590 kts | 105° |
| 2026-04-18 15:19 | 33.78124 | -118.01178 | 41005 ft | 588 kts | 92° |
| 2026-04-18 15:19 | 33.77763 | -117.96271 | 41004 ft | 591 kts | 95° |
| 2026-04-18 15:20 | 33.76962 | -117.86490 | 41036 ft | 590 kts | 94° |
| 2026-04-18 15:20 | 33.76192 | -117.76686 | 41033 ft | 588 kts | 94° |
| 2026-04-18 15:21 | 33.75406 | -117.66883 | 41050 ft | 586 kts | 94° |
| 2026-04-18 15:21 | 33.74623 | -117.57088 | 41047 ft | 588 kts | 94° |
| 2026-04-18 15:22 | 33.73876 | -117.47360 | 41043 ft | 590 kts | 94° |
| 2026-04-18 15:22 | 33.73122 | -117.37605 | 41027 ft | 590 kts | 94° |
| 2026-04-18 15:23 | 33.72332 | -117.27797 | 41026 ft | 587 kts | 94° |
| 2026-04-18 15:23 | 33.71526 | -117.18002 | 41062 ft | 586 kts | 94° |
| 2026-04-18 15:24 | 33.70723 | -117.08215 | 41075 ft | 588 kts | 94° |
| 2026-04-18 15:24 | 33.69924 | -116.98431 | 41064 ft | 590 kts | 94° |
| 2026-04-18 15:25 | 33.69115 | -116.88667 | 41062 ft | 590 kts | 95° |
| 2026-04-18 15:25 | 33.68288 | -116.78883 | 41061 ft | 587 kts | 95° |
| 2026-04-18 15:26 | 33.67458 | -116.69164 | 41044 ft | 586 kts | 95° |
| 2026-04-18 15:26 | 33.66634 | -116.59545 | 41054 ft | 588 kts | 95° |
| 2026-04-18 15:27 | 33.65789 | -116.49744 | 41069 ft | 589 kts | 95° |
| 2026-04-18 15:27 | 33.64942 | -116.40036 | 41054 ft | 586 kts | 95° |
| 2026-04-18 15:28 | 33.64177 | -116.31373 | 41051 ft | 586 kts | 95° |
| 2026-04-18 15:28 | 33.63387 | -116.22498 | 41044 ft | 589 kts | 95° |
| 2026-04-18 15:29 | 33.62900 | -116.12744 | 41039 ft | 590 kts | 91° |
| 2026-04-18 15:29 | 33.62648 | -116.02962 | 41060 ft | 588 kts | 90° |
| 2026-04-18 15:30 | 33.62433 | -115.93155 | 41046 ft | 586 kts | 90° |
| 2026-04-18 15:30 | 33.62218 | -115.83358 | 41044 ft | 585 kts | 90° |
| 2026-04-18 15:31 | 33.61990 | -115.73607 | 41050 ft | 587 kts | 90° |
| 2026-04-18 15:31 | 33.61781 | -115.63775 | 41034 ft | 589 kts | 90° |
| 2026-04-18 15:32 | 33.61592 | -115.54053 | 41034 ft | 587 kts | 90° |
| 2026-04-18 15:32 | 33.61372 | -115.44196 | 41033 ft | 585 kts | 90° |
| 2026-04-18 15:33 | 33.61133 | -115.34368 | 41036 ft | 586 kts | 90° |
| 2026-04-18 15:33 | 33.60889 | -115.24610 | 41038 ft | 587 kts | 90° |
| 2026-04-18 15:34 | 33.60656 | -115.15172 | 41029 ft | 588 kts | 91° |
| 2026-04-18 15:34 | 33.60405 | -115.05212 | 41043 ft | 586 kts | 91° |
| 2026-04-18 15:35 | 33.60144 | -114.95424 | 41055 ft | 584 kts | 91° |
| 2026-04-18 15:35 | 33.59873 | -114.85652 | 41050 ft | 586 kts | 91° |
| 2026-04-18 15:36 | 33.59481 | -114.75966 | 41051 ft | 588 kts | 96° |
| 2026-04-18 15:36 | 33.58661 | -114.66208 | 41055 ft | 587 kts | 95° |
| 2026-04-18 15:37 | 33.57820 | -114.56411 | 41060 ft | 585 kts | 95° |
| 2026-04-18 15:37 | 33.56978 | -114.46703 | 41051 ft | 586 kts | 95° |
| 2026-04-18 15:38 | 33.56120 | -114.36980 | 41050 ft | 589 kts | 96° |
| 2026-04-18 15:38 | 33.55219 | -114.27260 | 41033 ft | 589 kts | 96° |
| 2026-04-18 15:39 | 33.54300 | -114.17530 | 41030 ft | 587 kts | 96° |
| 2026-04-18 15:39 | 33.53414 | -114.08016 | 41021 ft | 585 kts | 96° |
| 2026-04-18 15:40 | 33.52523 | -113.98404 | 41032 ft | 586 kts | 96° |
| 2026-04-18 15:40 | 33.51670 | -113.89362 | 41027 ft | 589 kts | 96° |
| 2026-04-18 15:41 | 33.50754 | -113.79816 | 41021 ft | 589 kts | 96° |
| 2026-04-18 15:41 | 33.49814 | -113.70118 | 41021 ft | 587 kts | 96° |
| 2026-04-18 15:42 | 33.48869 | -113.60384 | 41026 ft | 585 kts | 96° |
| 2026-04-18 15:42 | 33.48138 | -113.52875 | 41026 ft | 589 kts | 97° |
| 2026-04-18 15:43 | 33.47664 | -113.48034 | 41022 ft | 585 kts | 97° |
| 2026-04-18 15:43 | 33.47125 | -113.42593 | 41020 ft | 589 kts | 97° |
| 2026-04-18 15:44 | 33.46665 | -113.37903 | 41019 ft | 586 kts | 96° |
| 2026-04-18 15:44 | 33.46500 | -113.32563 | 41017 ft | 588 kts | 91° |
| 2026-04-18 15:45 | 33.46317 | -113.26341 | 41015 ft | 586 kts | 91° |
| 2026-04-18 15:45 | 33.46160 | -113.19376 | 41016 ft | 589 kts | 91° |
| 2026-04-18 15:46 | 33.45975 | -113.10718 | 41009 ft | 586 kts | 91° |
| 2026-04-18 15:46 | 33.45840 | -113.04222 | 41018 ft | 588 kts | 91° |
| 2026-04-18 15:47 | 33.45704 | -112.98217 | 41026 ft | 587 kts | 91° |
| 2026-04-18 15:47 | 33.45578 | -112.92771 | 41032 ft | 588 kts | 91° |
| 2026-04-18 15:48 | 33.45375 | -112.83321 | 41045 ft | 590 kts | 91° |
| 2026-04-18 15:48 | 33.45225 | -112.75570 | 41055 ft | 587 kts | 91° |
| 2026-04-18 15:49 | 33.45107 | -112.69535 | 41053 ft | 588 kts | 91° |
| 2026-04-18 15:49 | 33.44983 | -112.63690 | 41051 ft | 587 kts | 91° |
| 2026-04-18 15:50 | 33.44799 | -112.55757 | 41049 ft | 586 kts | 91° |
| 2026-04-18 15:50 | 33.44574 | -112.46626 | 41053 ft | 589 kts | 91° |
| 2026-04-18 15:51 | 33.44400 | -112.39484 | 41050 ft | 588 kts | 91° |
| 2026-04-18 15:51 | 33.44184 | -112.30571 | 41057 ft | 586 kts | 91° |
| 2026-04-18 15:52 | 33.44002 | -112.23192 | 41028 ft | 590 kts | 92° |
| 2026-04-18 15:52 | 33.43805 | -112.15546 | 41043 ft | 589 kts | 92° |
| 2026-04-18 15:53 | 33.43609 | -112.08235 | 41045 ft | 587 kts | 92° |
| 2026-04-18 15:53 | 33.43335 | -111.98470 | 41047 ft | 589 kts | 91° |
| 2026-04-18 15:54 | 33.43190 | -111.88776 | 41041 ft | 591 kts | 91° |
| 2026-04-18 15:54 | 33.43033 | -111.78992 | 41049 ft | 590 kts | 91° |
| 2026-04-18 15:55 | 33.42906 | -111.69792 | 41055 ft | 588 kts | 91° |
| 2026-04-18 15:55 | 33.42801 | -111.62147 | 41060 ft | 590 kts | 91° |
| 2026-04-18 15:56 | 33.42683 | -111.54637 | 41051 ft | 591 kts | 91° |
| 2026-04-18 15:56 | 33.42540 | -111.46632 | 41040 ft | 588 kts | 91° |
| 2026-04-18 15:57 | 33.42365 | -111.37193 | 41025 ft | 589 kts | 92° |
| 2026-04-18 15:57 | 33.42225 | -111.29532 | 41020 ft | 592 kts | 91° |
| 2026-04-18 15:58 | 33.42091 | -111.22222 | 41003 ft | 589 kts | 91° |
| 2026-04-18 15:58 | 33.41904 | -111.12488 | 40997 ft | 604 kts | 92° |
| 2026-04-18 15:59 | 33.41699 | -111.02525 | 41006 ft | 601 kts | 92° |
| 2026-04-18 15:59 | 33.41494 | -110.93054 | 41024 ft | 600 kts | 92° |
| 2026-04-18 16:00 | 33.41312 | -110.84767 | 41023 ft | 599 kts | 92° |
| 2026-04-18 16:00 | 33.41126 | -110.76494 | 41021 ft | 597 kts | 92° |
| 2026-04-18 16:01 | 33.40945 | -110.68667 | 41017 ft | 601 kts | 92° |
| 2026-04-18 16:01 | 33.40778 | -110.61658 | 41015 ft | 599 kts | 92° |
| 2026-04-18 16:02 | 33.40614 | -110.54985 | 41033 ft | 602 kts | 92° |
| 2026-04-18 16:02 | 33.40426 | -110.47461 | 41032 ft | 600 kts | 92° |
| 2026-04-18 16:03 | 33.40290 | -110.42143 | 41029 ft | 602 kts | 92° |
| 2026-04-18 16:03 | 33.40093 | -110.34543 | 41028 ft | 601 kts | 92° |
| 2026-04-18 16:04 | 33.39864 | -110.25931 | 41030 ft | 602 kts | 93° |
| 2026-04-18 16:04 | 33.39684 | -110.19316 | 41030 ft | 602 kts | 93° |
| 2026-04-18 16:05 | 33.39522 | -110.13542 | 41028 ft | 603 kts | 93° |
| 2026-04-18 16:05 | 33.39213 | -110.02690 | 41033 ft | 604 kts | 93° |
| 2026-04-18 16:06 | 33.38932 | -109.93080 | 41036 ft | 603 kts | 93° |
| 2026-04-18 16:06 | 33.38711 | -109.85707 | 41027 ft | 604 kts | 93° |
| 2026-04-18 16:07 | 33.38439 | -109.76800 | 41029 ft | 605 kts | 93° |
| 2026-04-18 16:07 | 33.38197 | -109.69094 | 41043 ft | 604 kts | 93° |
| 2026-04-18 16:08 | 33.37979 | -109.62237 | 41039 ft | 606 kts | 94° |
| 2026-04-18 16:08 | 33.37753 | -109.55245 | 41036 ft | 604 kts | 94° |
| 2026-04-18 16:09 | 33.37474 | -109.46844 | 41041 ft | 607 kts | 94° |
| 2026-04-18 16:09 | 33.37218 | -109.39227 | 41042 ft | 606 kts | 94° |
| 2026-04-18 16:10 | 33.36963 | -109.31786 | 41046 ft | 607 kts | 94° |
| 2026-04-18 16:10 | 33.36636 | -109.22447 | 41044 ft | 609 kts | 94° |
| 2026-04-18 16:11 | 33.36300 | -109.13044 | 41062 ft | 607 kts | 94° |
| 2026-04-18 16:11 | 33.35955 | -109.03591 | 41043 ft | 606 kts | 94° |
| 2026-04-18 16:12 | 33.35655 | -108.95527 | 41044 ft | 610 kts | 94° |
| 2026-04-18 16:12 | 33.35377 | -108.88154 | 41060 ft | 608 kts | 94° |
| 2026-04-18 16:13 | 33.35112 | -108.81250 | 41063 ft | 608 kts | 95° |
| 2026-04-18 16:13 | 33.34813 | -108.73593 | 41062 ft | 612 kts | 95° |
| 2026-04-18 16:14 | 33.34529 | -108.66383 | 41070 ft | 609 kts | 95° |
| 2026-04-18 16:14 | 33.34258 | -108.59617 | 41044 ft | 613 kts | 95° |
| 2026-04-18 16:15 | 33.33829 | -108.49137 | 41071 ft | 612 kts | 95° |
| 2026-04-18 16:16 | 33.33425 | -108.39444 | 41069 ft | 614 kts | 95° |
| 2026-04-18 16:16 | 33.33002 | -108.29462 | 41049 ft | 614 kts | 95° |
| 2026-04-18 16:17 | 33.32583 | -108.19748 | 41073 ft | 612 kts | 95° |
| 2026-04-18 16:17 | 33.32127 | -108.09398 | 41067 ft | 613 kts | 96° |
| 2026-04-18 16:18 | 33.31670 | -107.99208 | 41076 ft | 615 kts | 96° |
| 2026-04-18 16:18 | 33.31205 | -107.89013 | 41079 ft | 617 kts | 96° |
| 2026-04-18 16:19 | 33.30731 | -107.78804 | 41062 ft | 617 kts | 96° |
| 2026-04-18 16:19 | 33.30250 | -107.68659 | 41094 ft | 620 kts | 96° |
| 2026-04-18 16:20 | 33.29759 | -107.58397 | 41157 ft | 618 kts | 96° |
| 2026-04-18 16:20 | 33.29260 | -107.48194 | 41212 ft | 618 kts | 97° |
| 2026-04-18 16:21 | 33.28748 | -107.37934 | 41259 ft | 619 kts | 97° |
| 2026-04-18 16:21 | 33.28384 | -107.28255 | 41274 ft | 624 kts | 90° |
| 2026-04-18 16:22 | 33.28653 | -107.18196 | 41272 ft | 624 kts | 91° |
| 2026-04-18 16:22 | 33.28931 | -107.07699 | 41226 ft | 625 kts | 91° |
| 2026-04-18 16:23 | 33.29174 | -106.98638 | 41177 ft | 626 kts | 91° |
| 2026-04-18 16:23 | 33.29476 | -106.86881 | 41120 ft | 627 kts | 91° |
| 2026-04-18 16:24 | 33.29728 | -106.76915 | 41111 ft | 629 kts | 91° |
| 2026-04-18 16:24 | 33.30005 | -106.66926 | 41110 ft | 628 kts | 91° |
| 2026-04-18 16:25 | 33.30289 | -106.56742 | 41103 ft | 630 kts | 91° |
| 2026-04-18 16:25 | 33.30480 | -106.49370 | 41089 ft | 632 kts | 91° |
| 2026-04-18 16:26 | 33.30610 | -106.43954 | 41095 ft | 631 kts | 92° |
| 2026-04-18 16:26 | 33.30747 | -106.38038 | 41097 ft | 633 kts | 92° |
| 2026-04-18 16:27 | 33.30924 | -106.30353 | 41098 ft | 632 kts | 92° |
| 2026-04-18 16:27 | 33.31090 | -106.23143 | 41099 ft | 635 kts | 92° |
| 2026-04-18 16:28 | 33.31283 | -106.14849 | 41098 ft | 633 kts | 92° |
| 2026-04-18 16:28 | 33.31495 | -106.05370 | 41099 ft | 634 kts | 92° |
| 2026-04-18 16:29 | 33.31715 | -105.94903 | 41101 ft | 636 kts | 92° |
| 2026-04-18 16:29 | 33.31875 | -105.86803 | 41164 ft | 634 kts | 92° |